Smithmill, PA (16680)

9:34 AM EST on December 05, 2016 (GMT -0500)
The Garden | | Change Station

Elev 1578 ft 40.79 °N, 78.37 °W | Updated 24 seconds ago

Overcast
Overcast
39.9 °F
Feels Like 40 °F
N
0.0
Wind Variable Wind from SW
Gusts 0.0 mph

Today
High -- | Low -- °F
--% Chance of Precip.
Yesterday
High -- | Low -- °F
Precip. -- in
Pressure 29.98 in
Visibility 10.0 miles
Clouds Scattered Clouds 1300 ft
Mostly Cloudy 3000 ft
Overcast 4100 ft
Windchill 40 °F
Dew Point 21 °F
Humidity 46%
Rainfall 0.13 in
Snow Depth Not available.
7:22 AM 4:46 PM
Waxing Crescent, 32% visible
SPECI KFIG 051411Z AUTO 25008G18KT 10SM SCT013 BKN030 OVC041 03/01 A2998 RMK AO2 RAE09 P0000 T00280011
Pressure 29.98 in
Visibility 10.0 miles
Clouds Scattered Clouds 1300 ft
Mostly Cloudy 3000 ft
Overcast 4100 ft
Windchill 40 °F
Dew Point 21 °F
Humidity 46%
Rainfall 0.13 in
Snow Depth Not available.
7:22 AM 4:46 PM
Waxing Crescent, 32% visible
SPECI KFIG 051411Z AUTO 25008G18KT 10SM SCT013 BKN030 OVC041 03/01 A2998 RMK AO2 RAE09 P0000 T00280011

10-Day Weather Forecast

Almanac

Astronomy

Dec. 05, 2016 Rise Set
Actual Time
Civil Twilight
Nautical Twilight
Astronomical Twilight
Moon
Length of Visible Light
Length of Day
Tomorrow will be .
, % of the Moon is Illuminated

Today's Extremes

State Highs State Lows

Community

WunderPhotos

Upload Photos

1,955,782 photos uploaded!

WunderBlog® & News

Nearby

Air Quality

  Air Quality AQ Index Pollutant
Not available.

Snow Depth

Station Depth Elevation

Earthquake Activity

City Distance Mag. Time & Date
Minimum magnitude displayed is 2.5.

Coastal Water Temperatures

Place Temperature

Stations

Nearby Weather Stations

Station Location Temp. Windchill Dew Point Humidity Wind Precip. Elev Updated Type
                   

Watches & Warnings

There are currently no watches in effect.